.
WxDataArchive / Data Records for 2009-04-14
2009-04-13 April 2009 2009-04-15

Data Records for Tuesday, 14 April 2009

Time	Temp	Chill	HIndex	Humid	Dewpt	 Wind 	HiWind	WindDir	Rain 	Barom 
-----	----	-----	------	-----	-----	------	------	-------	-----	----- 
00:00	40.3	40.3	40.3	95	39.0	2	5	90	0.00	29.791 
00:05	40.3	40.3	40.3	95	39.0	2	6	112	0.00	29.791 
00:10	40.3	40.3	40.3	95	39.0	2	5	90	0.00	29.791 
00:15	40.3	40.3	40.3	95	39.0	2	5	90	0.00	29.791 
00:20	40.3	40.3	40.3	95	39.0	2	6	90	0.00	29.791 
00:25	40.5	40.5	40.5	95	39.2	2	6	112	0.01	29.791 
00:30	40.5	40.5	40.5	95	39.2	1	4	112	0.00	29.786 
00:35	40.5	40.5	40.5	95	39.2	1	4	112	0.01	29.786 
00:40	40.5	40.5	40.5	95	39.2	2	6	90	0.00	29.786 
00:45	40.5	40.5	40.5	95	39.2	1	3	90	0.01	29.781 
00:50	40.5	40.5	40.5	95	39.2	2	5	90	0.00	29.781 
00:55	40.5	40.5	40.5	95	39.2	1	6	22	0.00	29.781 
01:00	40.3	40.3	40.3	95	39.0	1	4	112	0.00	29.779 
01:05	40.3	40.3	40.3	95	39.0	1	5	112	0.00	29.779 
01:10	40.2	40.2	40.2	95	38.9	1	4	112	0.00	29.779 
01:15	40.2	40.2	40.2	95	38.9	2	6	112	0.00	29.777 
01:20	40.2	40.2	40.2	95	38.9	3	6	112	0.00	29.777 
01:25	40.2	40.2	40.2	96	39.2	2	7	90	0.00	29.777 
01:30	40.2	40.2	40.2	95	38.9	2	5	22	0.00	29.776 
01:35	40.2	40.2	40.2	95	38.9	3	5	112	0.00	29.776 
01:40	40.2	40.2	40.2	96	39.2	3	7	112	0.00	29.776 
01:45	40.2	40.2	40.2	96	39.2	3	7	112	0.00	29.777 
01:50	40.2	40.2	40.2	96	39.2	3	7	112	0.00	29.777 
01:55	40.2	37.5	40.2	96	39.2	4	9	90	0.00	29.777 
02:00	40.2	40.2	40.2	96	39.2	2	7	90	0.00	29.775 
02:05	40.2	40.2	40.2	96	39.2	3	7	112	0.00	29.775 
02:10	40.2	40.2	40.2	96	39.2	3	10	112	0.00	29.775 
02:15	40.2	40.2	40.2	96	39.2	3	8	90	0.00	29.769 
02:20	40.2	40.2	40.2	96	39.2	3	11	90	0.00	29.769 
02:25	40.2	40.2	40.2	96	39.2	2	7	90	0.00	29.769 
02:30	40.3	40.3	40.3	96	39.3	3	11	112	0.00	29.759 
02:35	40.3	40.3	40.3	96	39.3	3	8	45	0.00	29.759 
02:40	40.3	37.7	40.3	96	39.3	4	10	112	0.00	29.759 
02:45	40.3	40.3	40.3	96	39.3	3	7	90	0.00	29.750 
02:50	40.3	40.3	40.3	96	39.3	3	8	90	0.00	29.750 
02:55	40.3	40.3	40.3	96	39.3	3	9	112	0.00	29.750 
03:00	40.5	40.5	40.5	96	39.5	2	5	90	0.00	29.743 
03:05	40.5	40.5	40.5	96	39.5	3	7	112	0.00	29.743 
03:10	40.5	40.5	40.5	96	39.5	3	6	112	0.00	29.743 
03:15	40.5	40.5	40.5	96	39.5	3	6	90	0.00	29.740 
03:20	40.5	40.5	40.5	96	39.5	3	6	90	0.00	29.740 
03:25	40.5	40.5	40.5	96	39.5	3	8	112	0.00	29.740 
03:30	40.5	40.5	40.5	96	39.5	3	6	112	0.00	29.738 
03:35	40.5	40.5	40.5	96	39.5	2	5	68	0.00	29.738 
03:40	40.5	40.5	40.5	96	39.5	2	7	90	0.00	29.738 
03:45	40.6	40.6	40.6	96	39.5	2	7	90	0.00	29.739 
03:50	40.6	40.6	40.6	96	39.5	1	5	90	0.00	29.739 
03:55	40.6	40.6	40.6	96	39.5	2	5	112	0.00	29.739 
04:00	40.8	40.8	40.8	96	39.7	1	5	90	0.00	29.731 
04:05	40.8	40.8	40.8	96	39.7	1	5	22	0.00	29.731 
04:10	40.8	40.8	40.8	96	39.7	1	5	135	0.00	29.731 
04:15	40.9	40.9	40.9	96	39.8	2	5	112	0.00	29.739 
04:20	40.9	40.9	40.9	96	39.8	2	4	338	0.00	29.739 
04:25	40.9	40.9	40.9	96	39.8	2	6	90	0.00	29.739 
04:30	40.9	40.9	40.9	96	39.8	1	2	45	0.00	29.740 
04:35	41.1	41.1	41.1	96	40.0	1	4	90	0.00	29.740 
04:40	41.1	41.1	41.1	96	40.0	2	5	90	0.00	29.740 
04:45	41.1	41.1	41.1	96	40.0	1	4	112	0.00	29.740 
04:50	41.1	41.1	41.1	96	40.0	1	5	112	0.00	29.740 
04:55	41.1	41.1	41.1	96	40.0	3	6	112	0.00	29.740 
05:00	41.1	41.1	41.1	96	40.0	1	5	90	0.00	29.744 
05:05	41.1	41.1	41.1	96	40.0	2	6	112	0.00	29.744 
05:10	41.1	41.1	41.1	96	40.0	1	5	90	0.00	29.744 
05:15	41.1	41.1	41.1	96	40.0	1	7	90	0.00	29.743 
05:20	41.2	41.2	41.2	96	40.1	1	5	90	0.00	29.743 
05:25	41.2	41.2	41.2	96	40.1	1	4	90	0.00	29.743 
05:30	41.2	41.2	41.2	96	40.1	2	6	68	0.00	29.741 
05:35	41.2	41.2	41.2	96	40.1	2	6	45	0.00	29.741 
05:40	41.2	41.2	41.2	96	40.1	2	7	112	0.00	29.741 
05:45	41.2	41.2	41.2	96	40.1	2	5	112	0.00	29.737 
05:50	41.2	41.2	41.2	96	40.1	2	7	112	0.00	29.737 
05:55	41.3	41.3	41.3	96	40.2	3	7	90	0.00	29.737 
06:00	41.3	41.3	41.3	96	40.2	2	6	90	0.00	29.739 
06:05	41.3	41.3	41.3	96	40.2	2	7	90	0.00	29.739 
06:10	41.3	41.3	41.3	96	40.2	2	6	90	0.00	29.739 
06:15	41.2	41.2	41.2	96	40.1	2	7	112	0.00	29.736 
06:20	41.2	41.2	41.2	96	40.1	1	4	45	0.00	29.736 
06:25	41.2	41.2	41.2	96	40.1	2	5	22	0.00	29.736 
06:30	41.1	41.1	41.1	96	40.0	3	6	112	0.00	29.733 
06:35	41.1	41.1	41.1	96	40.0	2	6	68	0.00	29.733 
06:40	40.9	40.9	40.9	96	39.8	2	5	68	0.00	29.733 
06:45	40.9	40.9	40.9	96	39.8	2	5	112	0.00	29.731 
06:50	40.8	40.8	40.8	96	39.7	2	7	90	0.00	29.731 
06:55	40.8	40.8	40.8	96	39.7	2	6	112	0.00	29.731 
07:00	40.8	40.8	40.8	96	39.7	2	8	112	0.00	29.731 
07:05	40.8	40.8	40.8	96	39.7	1	5	112	0.00	29.731 
07:10	40.6	40.6	40.6	96	39.5	1	3	90	0.00	29.731 
07:15	40.6	40.6	40.6	96	39.5	1	5	0	0.00	29.732 
07:20	40.6	40.6	40.6	96	39.5	2	6	22	0.00	29.732 
07:25	40.6	40.6	40.6	96	39.5	1	5	112	0.00	29.732 
07:30	40.5	40.5	40.5	96	39.5	2	5	135	0.00	29.738 
07:35	40.5	40.5	40.5	96	39.5	2	5	68	0.00	29.738 
07:40	40.5	40.5	40.5	96	39.5	2	4	112	0.00	29.738 
07:45	40.5	40.5	40.5	96	39.5	2	8	112	0.00	29.739 
07:50	40.5	40.5	40.5	96	39.5	3	7	112	0.00	29.739 
07:55	40.5	40.5	40.5	96	39.5	2	5	22	0.00	29.739 
08:00	40.5	40.5	40.5	96	39.5	2	5	112	0.00	29.739 
08:05	40.5	40.5	40.5	96	39.5	2	5	22	0.00	29.739 
08:10	40.5	40.5	40.5	96	39.5	2	6	22	0.00	29.739 
08:15	40.5	40.5	40.5	96	39.5	2	6	22	0.00	29.739 
08:20	40.5	40.5	40.5	96	39.5	2	5	22	0.00	29.739 
08:25	40.5	40.5	40.5	96	39.5	1	7	112	0.00	29.739 
08:30	40.5	40.5	40.5	96	39.5	1	4	68	0.00	29.742 
08:35	40.5	40.5	40.5	96	39.5	1	6	90	0.00	29.742 
08:40	40.5	40.5	40.5	96	39.5	1	4	90	0.00	29.742 
08:45	40.5	40.5	40.5	96	39.5	2	5	112	0.00	29.743 
08:50	40.5	40.5	40.5	96	39.5	2	4	112	0.00	29.743 
08:55	40.5	40.5	40.5	96	39.5	1	5	90	0.01	29.743 
09:00	40.6	40.6	40.6	96	39.5	2	4	45	0.00	29.743 
09:05	40.6	40.6	40.6	96	39.5	2	5	68	0.00	29.743 
09:10	40.6	40.6	40.6	96	39.5	2	5	0	0.00	29.743 
09:15	40.6	40.6	40.6	96	39.5	2	6	112	0.00	29.741 
09:20	40.6	40.6	40.6	96	39.5	1	4	90	0.00	29.741 
09:25	40.8	40.8	40.8	96	39.7	1	4	45	0.01	29.741 
09:30	40.8	40.8	40.8	96	39.7	1	5	135	0.00	29.740 
09:35	40.8	40.8	40.8	96	39.7	2	5	112	0.00	29.740 
09:40	40.8	40.8	40.8	96	39.7	1	4	45	0.00	29.740 
09:45	40.8	40.8	40.8	96	39.7	1	5	112	0.00	29.741 
09:50	40.9	40.9	40.9	96	39.8	1	3	22	0.00	29.741 
09:55	40.9	40.9	40.9	96	39.8	1	5	112	0.00	29.741 
10:00	40.9	40.9	40.9	96	39.8	2	7	45	0.00	29.740 
10:05	41.1	41.1	41.1	96	40.0	2	4	112	0.01	29.740 
10:10	41.1	41.1	41.1	96	40.0	0	3	22	0.00	29.740 
10:15	41.1	41.1	41.1	96	40.0	1	3	112	0.01	29.744 
10:20	41.2	41.2	41.2	96	40.1	1	3	112	0.01	29.744 
10:25	41.2	41.2	41.2	96	40.1	1	3	22	0.00	29.744 
10:30	41.1	41.1	41.1	96	40.0	1	3	270	0.01	29.745 
10:35	41.1	41.1	41.1	96	40.0	1	3	68	0.01	29.745 
10:40	41.1	41.1	41.1	96	40.0	1	5	112	0.01	29.745 
10:45	41.2	41.2	41.2	96	40.1	0	2	45	0.01	29.749 
10:50	41.2	41.2	41.2	96	40.1	1	4	45	0.00	29.749 
10:55	41.2	41.2	41.2	96	40.1	0	3	45	0.01	29.749 
11:00	41.3	41.3	41.3	96	40.2	1	3	135	0.01	29.749 
11:05	41.5	41.5	41.5	96	40.4	1	4	22	0.01	29.749 
11:10	41.6	41.6	41.6	96	40.5	0	3	22	0.01	29.749 
11:15	41.6	41.6	41.6	96	40.5	0	3	45	0.00	29.752 
11:20	41.6	41.6	41.6	96	40.5	0	3	45	0.01	29.752 
11:25	41.8	41.8	41.8	96	40.7	1	2	45	0.00	29.752 
11:30	41.8	41.8	41.8	96	40.7	1	4	45	0.00	29.753 
11:35	41.8	41.8	41.8	96	40.7	1	4	68	0.00	29.753 
11:40	41.8	41.8	41.8	96	40.7	1	4	68	0.01	29.753 
11:45	41.9	41.9	41.9	96	40.8	0	2	45	0.00	29.752 
11:50	41.9	41.9	41.9	96	40.8	1	5	135	0.00	29.752 
11:55	42.1	42.1	42.1	96	41.0	1	3	112	0.01	29.752 
12:00	42.2	42.2	42.2	96	41.1	1	3	135	0.00	29.753 
12:05	42.3	42.3	42.3	96	41.2	0	2	0	0.00	29.753 
12:10	42.5	42.5	42.5	96	41.4	0	3	22	0.00	29.753 
12:15	42.3	42.3	42.3	96	41.2	1	3	338	0.00	29.757 
12:20	42.5	42.5	42.5	96	41.4	0	2	0	0.01	29.757 
12:25	42.5	42.5	42.5	96	41.4	0	1	0	0.00	29.757 
12:30	42.6	42.6	42.6	96	41.5	0	1	0	0.00	29.765 
12:35	42.8	42.8	42.8	96	41.7	0	1	0	0.00	29.765 
12:40	42.9	42.9	42.9	96	41.8	0	3	0	0.00	29.765 
12:45	42.8	42.8	42.8	96	41.7	0	2	90	0.00	29.768 
12:50	42.8	42.8	42.8	96	41.7	0	3	0	0.00	29.768 
12:55	42.9	42.9	42.9	96	41.8	0	3	90	0.00	29.768 
13:00	42.8	42.8	42.8	96	41.7	1	3	0	0.00	29.766 
13:05	42.9	42.9	42.9	96	41.8	0	2	0	0.00	29.766 
13:10	42.9	42.9	42.9	96	41.8	1	3	0	0.00	29.766 
13:15	42.9	42.9	42.9	96	41.8	0	2	22	0.00	29.770 
13:20	43.1	43.1	43.1	96	42.0	0	2	270	0.00	29.770 
13:25	43.1	43.1	43.1	96	42.0	0	2	270	0.00	29.770 
13:30	43.2	43.2	43.2	96	42.1	0	1	270	0.01	29.769 
13:35	43.3	43.3	43.3	96	42.2	0	2	292	0.00	29.769 
13:40	43.5	43.5	43.5	96	42.4	0	1	135	0.00	29.769 
13:45	43.5	43.5	43.5	96	42.4	0	4	338	0.00	29.767 
13:50	43.3	43.3	43.3	96	42.2	0	2	338	0.00	29.767 
13:55	43.3	43.3	43.3	96	42.2	0	4	338	0.00	29.767 
14:00	43.6	43.6	43.6	96	42.5	0	4	112	0.00	29.766 
14:05	43.6	43.6	43.6	96	42.5	1	4	90	0.00	29.766 
14:10	43.6	43.6	43.6	96	42.5	1	5	90	0.00	29.766 
14:15	43.8	43.8	43.8	95	42.5	1	5	68	0.00	29.768 
14:20	43.8	43.8	43.8	95	42.5	0	3	0	0.00	29.768 
14:25	43.5	43.5	43.5	95	42.2	1	3	338	0.01	29.768 
14:30	43.5	43.5	43.5	95	42.2	1	3	315	0.00	29.773 
14:35	43.5	43.5	43.5	95	42.2	1	6	0	0.00	29.773 
14:40	43.5	43.5	43.5	95	42.2	1	2	22	0.00	29.773 
14:45	43.5	43.5	43.5	95	42.2	0	2	22	0.00	29.780 
14:50	43.5	43.5	43.5	95	42.2	0	2	0	0.00	29.780 
14:55	43.5	43.5	43.5	95	42.2	0	3	315	0.01	29.780 
15:00	43.3	43.3	43.3	94	41.7	0	2	22	0.00	29.784 
15:05	43.3	43.3	43.3	95	42.0	0	2	22	0.00	29.784 
15:10	43.3	43.3	43.3	94	41.7	0	2	22	0.01	29.784 
15:15	43.3	43.3	43.3	95	42.0	0	3	22	0.00	29.787 
15:20	43.2	43.2	43.2	94	41.6	0	3	135	0.01	29.787 
15:25	43.2	43.2	43.2	94	41.6	0	3	0	0.00	29.787 
15:30	43.2	43.2	43.2	95	41.9	0	1	0	0.01	29.791 
15:35	43.2	43.2	43.2	95	41.9	0	2	0	0.00	29.791 
15:40	43.2	43.2	43.2	95	41.9	0	3	0	0.00	29.791 
15:45	43.3	43.3	43.3	95	42.0	0	2	315	0.00	29.794 
15:50	43.2	43.2	43.2	95	41.9	0	2	338	0.00	29.794 
15:55	43.2	43.2	43.2	95	41.9	0	2	338	0.01	29.794 
16:00	43.1	43.1	43.1	95	41.8	0	2	0	0.00	29.799 
16:05	43.1	43.1	43.1	95	41.8	0	2	0	0.00	29.799 
16:10	42.9	42.9	42.9	95	41.6	1	4	45	0.00	29.799 
16:15	42.9	42.9	42.9	95	41.6	1	4	0	0.00	29.803 
16:20	42.9	42.9	42.9	95	41.6	1	6	68	0.00	29.803 
16:25	43.1	43.1	43.1	95	41.8	1	3	68	0.00	29.803 
16:30	43.1	43.1	43.1	95	41.8	1	4	68	0.00	29.807 
16:35	43.1	43.1	43.1	95	41.8	0	3	68	0.00	29.807 
16:40	42.9	42.9	42.9	95	41.6	0	3	135	0.00	29.807 
16:45	43.1	43.1	43.1	95	41.8	0	1	135	0.00	29.812 
16:50	42.9	42.9	42.9	95	41.6	0	2	22	0.00	29.812 
16:55	42.8	42.8	42.8	95	41.5	0	2	22	0.00	29.812 
17:00	42.6	42.6	42.6	95	41.3	1	3	22	0.00	29.815 
17:05	42.3	42.3	42.3	95	41.0	1	4	22	0.00	29.815 
17:10	42.2	42.2	42.2	95	40.9	1	6	0	0.00	29.815 
17:15	42.1	42.1	42.1	94	40.5	1	3	315	0.00	29.827 
17:20	42.1	42.1	42.1	95	40.8	1	3	22	0.00	29.827 
17:25	41.9	41.9	41.9	95	40.6	1	3	338	0.00	29.827 
17:30	41.8	41.8	41.8	94	40.2	1	4	0	0.00	29.833 
17:35	41.6	41.6	41.6	94	40.0	1	3	0	0.00	29.833 
17:40	41.6	41.6	41.6	94	40.0	1	2	0	0.00	29.833 
17:45	41.6	41.6	41.6	94	40.0	1	4	0	0.00	29.839 
17:50	41.5	41.5	41.5	95	40.2	0	3	0	0.00	29.839 
17:55	41.5	41.5	41.5	95	40.2	0	2	22	0.00	29.839 
18:00	41.5	41.5	41.5	95	40.2	0	3	22	0.00	29.846 
18:05	41.5	41.5	41.5	95	40.2	0	3	315	0.00	29.846 
18:10	41.5	41.5	41.5	95	40.2	1	4	22	0.00	29.846 
18:15	41.5	41.5	41.5	95	40.2	1	3	0	0.01	29.849 
18:20	41.5	41.5	41.5	95	40.2	0	3	22	0.00	29.849 
18:25	41.3	41.3	41.3	95	40.0	0	3	45	0.00	29.849 
18:30	41.3	41.3	41.3	95	40.0	1	2	248	0.00	29.856 
18:35	41.2	41.2	41.2	95	39.9	1	5	315	0.00	29.856 
18:40	41.1	41.1	41.1	95	39.8	0	2	292	0.00	29.856 
18:45	41.1	41.1	41.1	95	39.8	1	3	68	0.00	29.857 
18:50	41.1	41.1	41.1	95	39.8	0	3	315	0.00	29.857 
18:55	40.9	40.9	40.9	95	39.6	0	3	292	0.00	29.857 
19:00	40.9	40.9	40.9	95	39.6	0	2	292	0.00	29.862 
19:05	40.9	40.9	40.9	95	39.6	1	3	68	0.00	29.862 
19:10	40.8	40.8	40.8	95	39.5	1	4	45	0.00	29.862 
19:15	40.8	40.8	40.8	95	39.5	1	5	45	0.00	29.863 
19:20	40.8	40.8	40.8	95	39.5	1	4	292	0.00	29.863 
19:25	40.8	40.8	40.8	95	39.5	1	3	0	0.00	29.863 
19:30	40.6	40.6	40.6	95	39.3	0	2	338	0.00	29.865 
19:35	40.6	40.6	40.6	95	39.3	0	2	338	0.00	29.865 
19:40	40.6	40.6	40.6	95	39.3	0	2	158	0.00	29.865 
19:45	40.6	40.6	40.6	95	39.3	0	3	270	0.00	29.874 
19:50	40.6	40.6	40.6	95	39.3	0	2	338	0.00	29.874 
19:55	40.5	40.5	40.5	95	39.2	0	2	338	0.00	29.874 
20:00	40.5	40.5	40.5	95	39.2	0	2	338	0.00	29.879 
20:05	40.5	40.5	40.5	95	39.2	0	3	338	0.00	29.879 
20:10	40.5	40.5	40.5	95	39.2	0	3	315	0.00	29.879 
20:15	40.5	40.5	40.5	95	39.2	0	1	315	0.01	29.880 
20:20	40.5	40.5	40.5	95	39.2	1	3	315	0.00	29.880 
20:25	40.3	40.3	40.3	95	39.0	1	2	315	0.01	29.880 
20:30	40.3	40.3	40.3	95	39.0	1	3	270	0.00	29.887 
20:35	40.3	40.3	40.3	95	39.0	0	3	270	0.00	29.887 
20:40	40.3	40.3	40.3	95	39.0	1	3	270	0.00	29.887 
20:45	40.3	40.3	40.3	95	39.0	1	4	292	0.00	29.896 
20:50	40.3	40.3	40.3	95	39.0	1	6	270	0.00	29.896 
20:55	40.2	40.2	40.2	95	38.9	1	4	270	0.00	29.896 
21:00	40.1	40.1	40.1	95	38.8	1	2	315	0.00	29.900 
21:05	39.9	39.9	39.9	95	38.6	0	2	315	0.00	29.900 
21:10	39.9	39.9	39.9	95	38.6	1	4	315	0.00	29.900 
21:15	39.9	39.9	39.9	95	38.6	0	2	292	0.00	29.910 
21:20	39.8	39.8	39.8	95	38.5	0	2	292	0.00	29.910 
21:25	39.8	39.8	39.8	95	38.5	0	4	270	0.00	29.910 
21:30	39.8	39.8	39.8	95	38.5	0	2	270	0.00	29.914 
21:35	39.8	39.8	39.8	95	38.5	0	3	22	0.00	29.914 
21:40	39.8	39.8	39.8	95	38.5	0	3	248	0.00	29.914 
21:45	39.8	39.8	39.8	95	38.5	0	2	248	0.00	29.918 
21:50	39.8	39.8	39.8	95	38.5	0	2	248	0.00	29.918 
21:55	39.6	39.6	39.6	95	38.3	0	3	22	0.00	29.918 
22:00	39.6	39.6	39.6	95	38.3	0	1	22	0.00	29.925 
22:05	39.6	39.6	39.6	95	38.3	0	2	315	0.00	29.925 
22:10	39.6	39.6	39.6	95	38.3	1	3	315	0.00	29.925 
22:15	39.6	39.6	39.6	95	38.3	0	2	292	0.01	29.928 
22:20	39.6	39.6	39.6	95	38.3	0	2	292	0.00	29.928 
22:25	39.6	39.6	39.6	95	38.3	0	3	0	0.00	29.928 
22:30	39.6	39.6	39.6	95	38.3	0	2	0	0.00	29.931 
22:35	39.6	39.6	39.6	95	38.3	0	2	0	0.00	29.931 
22:40	39.5	39.5	39.5	95	38.2	0	1	0	0.00	29.931 
22:45	39.5	39.5	39.5	95	38.2	0	2	338	0.01	29.935 
22:50	39.5	39.5	39.5	95	38.2	1	4	315	0.00	29.935 
22:55	39.5	39.5	39.5	95	38.2	0	2	315	0.00	29.935 
23:00	39.5	39.5	39.5	95	38.2	0	2	315	0.00	29.939 
23:05	39.5	39.5	39.5	95	38.2	1	5	315	0.00	29.939 
23:10	39.5	39.5	39.5	95	38.2	0	1	292	0.00	29.939 
23:15	39.5	39.5	39.5	95	38.2	1	5	270	0.00	29.941 
23:20	39.5	39.5	39.5	95	38.2	0	3	270	0.01	29.941 
23:25	39.5	39.5	39.5	94	37.9	1	3	22	0.00	29.941 
23:30	39.5	39.5	39.5	94	37.9	0	2	338	0.00	29.942 
23:35	39.5	39.5	39.5	94	37.9	0	2	338	0.00	29.942 
23:40	39.3	39.3	39.3	94	37.7	0	2	338	0.00	29.942 
23:45	39.3	39.3	39.3	94	37.7	0	2	338	0.00	29.942 
23:50	39.3	39.3	39.3	94	37.7	0	1	338	0.00	29.942 
23:55	39.2	39.2	39.2	94	37.6	0	3	338	0.00	29.942 

CoCoRaHS
IN-AL-39
A2 Web Hosting
Creative Commons License
GoDaddy
search engine by freefind advanced

loaded 2018-11-13 23:26:05 • last modified 2010-11-18 10:43:29
Privacy PolicyDisclaimer
• wx.awcolley.com is powered by PmWiki v.2002016 •
• all content (unless otherwise noted) © 2018 A W Colley